createdAt,value
2022-08-27T00:01:03.443Z,59.66
2022-08-27T00:04:10.850Z,59.83
2022-08-27T00:07:13.928Z,59.93
2022-08-27T00:10:20.264Z,59.74
2022-08-27T00:13:22.307Z,59.80
2022-08-27T00:16:24.652Z,59.63
2022-08-27T00:19:26.883Z,59.77
2022-08-27T00:22:29.086Z,59.77
2022-08-27T00:25:31.245Z,59.69
2022-08-27T00:28:34.358Z,59.54
2022-08-27T00:31:36.614Z,59.64
2022-08-27T00:34:38.722Z,59.57
2022-08-27T00:37:41.056Z,59.61
2022-08-27T00:40:43.343Z,59.47
2022-08-27T00:43:52.347Z,59.36
2022-08-27T00:47:01.287Z,59.51
2022-08-27T00:50:12.396Z,59.56
2022-08-27T00:53:22.600Z,59.43
2022-08-27T00:56:29.267Z,59.41
2022-08-27T00:59:32.815Z,59.48
2022-08-27T01:02:35.142Z,59.51
2022-08-27T01:05:38.459Z,59.35
2022-08-27T01:08:57.056Z,59.30
2022-08-27T01:11:59.579Z,59.32
2022-08-27T01:15:05.896Z,59.32
2022-08-27T01:18:09.309Z,59.35
2022-08-27T01:21:14.198Z,59.38
2022-08-27T01:24:37.569Z,59.47
2022-08-27T01:27:40.394Z,59.61
2022-08-27T01:30:43.266Z,59.32
2022-08-27T01:33:56.811Z,59.36
2022-08-27T01:36:58.916Z,59.35
2022-08-27T01:40:01.422Z,59.45
2022-08-27T01:43:04.380Z,59.49
2022-08-27T01:46:06.508Z,59.27
2022-08-27T01:49:10.528Z,59.25
2022-08-27T01:52:14.787Z,59.30
2022-08-27T01:55:19.518Z,59.25
2022-08-27T01:58:27.724Z,59.57
2022-08-27T02:01:29.882Z,59.51
2022-08-27T02:04:32.128Z,59.46
2022-08-27T02:07:34.218Z,59.51
2022-08-27T02:10:38.839Z,59.44
2022-08-27T02:13:41.075Z,59.40
2022-08-27T02:16:52.017Z,59.19
2022-08-27T02:19:55.034Z,59.33
2022-08-27T02:22:58.271Z,59.34
2022-08-27T02:26:00.685Z,59.37
2022-08-27T02:29:02.768Z,59.40
2022-08-27T02:32:04.866Z,59.47
2022-08-27T02:35:07.524Z,59.28
2022-08-27T02:38:10.407Z,59.27
2022-08-27T02:41:12.613Z,59.28
2022-08-27T02:44:15.495Z,59.26
2022-08-27T02:47:17.607Z,59.25
2022-08-27T02:50:19.756Z,59.09
2022-08-27T02:53:22.114Z,59.32
2022-08-27T02:56:26.156Z,59.26
2022-08-27T02:59:28.281Z,59.53
2022-08-27T03:02:30.391Z,59.51
2022-08-27T03:05:32.476Z,59.70
2022-08-27T03:08:52.279Z,59.80
2022-08-27T03:11:55.370Z,59.84
2022-08-27T03:14:57.607Z,59.81
2022-08-27T03:18:18.147Z,59.97
2022-08-27T03:21:24.172Z,59.86
2022-08-27T03:24:26.223Z,59.49
2022-08-27T03:27:28.375Z,59.44
2022-08-27T03:30:30.430Z,59.66
2022-08-27T03:33:37.261Z,59.50
2022-08-27T03:36:39.316Z,59.67
2022-08-27T03:39:41.368Z,59.88
2022-08-27T03:42:43.455Z,59.66
2022-08-27T03:45:50.377Z,59.77
2022-08-27T03:49:03.518Z,59.76
2022-08-27T03:52:06.655Z,59.77
2022-08-27T03:55:09.679Z,59.70
2022-08-27T03:58:12.700Z,59.55
2022-08-27T04:01:14.896Z,59.59
2022-08-27T04:04:16.993Z,60.02
2022-08-27T04:07:19.973Z,60.04
2022-08-27T04:10:22.131Z,59.89
2022-08-27T04:13:24.463Z,59.80
2022-08-27T04:16:27.183Z,59.83
2022-08-27T04:19:32.255Z,59.93
2022-08-27T04:22:34.615Z,59.83
2022-08-27T04:25:42.726Z,59.80
2022-08-27T04:28:48.568Z,60.61
2022-08-27T04:31:51.398Z,62.94
2022-08-27T04:34:58.743Z,64.85
2022-08-27T04:38:01.103Z,67.66
2022-08-27T04:41:22.094Z,68.30
2022-08-27T04:44:25.970Z,68.87
2022-08-27T04:47:28.083Z,69.20
2022-08-27T04:50:30.123Z,68.18
2022-08-27T04:53:32.151Z,68.17
2022-08-27T04:56:34.863Z,69.03
2022-08-27T04:59:37.401Z,68.79
2022-08-27T05:02:39.489Z,69.07
2022-08-27T05:05:42.908Z,68.49
2022-08-27T05:08:45.759Z,68.65
2022-08-27T05:11:47.855Z,69.03
2022-08-27T05:14:49.878Z,68.85
2022-08-27T05:17:52.817Z,69.39
2022-08-27T05:20:54.958Z,69.17
2022-08-27T05:23:59.294Z,68.88
2022-08-27T05:27:01.576Z,69.26
2022-08-27T05:30:04.003Z,69.65
2022-08-27T05:33:06.791Z,70.14
2022-08-27T05:36:19.703Z,69.45
2022-08-27T05:39:22.167Z,69.55
2022-08-27T05:42:24.684Z,69.87
2022-08-27T05:45:26.728Z,70.98
2022-08-27T05:48:28.820Z,71.00
2022-08-27T05:51:34.035Z,71.66
2022-08-27T05:54:36.378Z,70.33
2022-08-27T05:57:38.744Z,70.10
2022-08-27T06:01:16.016Z,70.16
2022-08-27T06:04:20.545Z,71.27
2022-08-27T06:07:22.828Z,71.02
2022-08-27T06:10:24.924Z,71.10
2022-08-27T06:13:27.284Z,70.42
2022-08-27T06:16:29.501Z,70.97
2022-08-27T06:19:34.662Z,68.84
2022-08-27T06:22:36.933Z,67.30
2022-08-27T06:25:40.873Z,66.58
2022-08-27T06:28:43.827Z,66.94
2022-08-27T06:31:45.876Z,67.12
2022-08-27T06:34:48.619Z,67.70
2022-08-27T06:37:50.726Z,67.65
2022-08-27T06:40:53.608Z,68.05
2022-08-27T06:43:56.716Z,67.07
2022-08-27T06:46:59.652Z,66.83
2022-08-27T06:50:01.872Z,67.23
2022-08-27T06:53:04.411Z,67.36
2022-08-27T06:56:06.760Z,66.65
2022-08-27T06:59:12.373Z,67.03
2022-08-27T07:04:57.193Z,67.33
2022-08-27T07:08:01.628Z,67.64
2022-08-27T07:11:04.101Z,67.76
2022-08-27T07:14:07.584Z,67.60
2022-08-27T07:17:11.180Z,66.70
2022-08-27T07:20:20.042Z,66.18
2022-08-27T07:23:22.148Z,66.00
2022-08-27T07:26:24.572Z,65.95
2022-08-27T07:29:30.419Z,67.36
2022-08-27T07:32:34.644Z,66.66
2022-08-27T07:35:36.914Z,66.97
2022-08-27T07:38:39.051Z,67.77
2022-08-27T07:42:00.121Z,67.99
2022-08-27T07:45:02.273Z,68.10
2022-08-27T07:48:04.920Z,67.88
2022-08-27T07:51:14.409Z,68.20
2022-08-27T07:54:16.877Z,67.24
2022-08-27T07:57:19.017Z,67.23
2022-08-27T08:00:21.678Z,67.77
2022-08-27T08:03:23.876Z,67.20
2022-08-27T08:06:26.331Z,67.71
2022-08-27T08:09:30.625Z,68.29
2022-08-27T08:12:34.522Z,68.70
2022-08-27T08:15:37.908Z,67.60
2022-08-27T08:18:40.700Z,67.03
2022-08-27T08:21:43.487Z,67.42
2022-08-27T08:24:45.617Z,67.66
2022-08-27T08:27:48.342Z,67.55
2022-08-27T08:30:55.071Z,66.99
2022-08-27T08:33:57.299Z,67.45
2022-08-27T08:36:59.424Z,68.10
2022-08-27T08:40:02.062Z,68.33
2022-08-27T08:43:09.956Z,68.65
2022-08-27T08:46:17.236Z,67.75
2022-08-27T08:49:42.026Z,66.88
2022-08-27T08:53:04.840Z,66.08
2022-08-27T08:56:19.742Z,66.52
2022-08-27T08:59:35.496Z,67.21
2022-08-27T09:02:37.885Z,66.94
2022-08-27T09:06:08.503Z,67.28
2022-08-27T09:09:22.699Z,66.98
2022-08-27T09:12:32.453Z,67.46
2022-08-27T09:15:36.214Z,67.23
2022-08-27T09:18:41.627Z,67.06
2022-08-27T09:21:44.988Z,67.62
2022-08-27T09:25:00.568Z,67.38
2022-08-27T09:28:31.850Z,67.67
2022-08-27T09:31:40.634Z,66.91
2022-08-27T09:34:44.992Z,66.65
2022-08-27T09:37:51.514Z,66.53
2022-08-27T09:40:55.948Z,66.18
2022-08-27T09:44:07.567Z,66.65
2022-08-27T09:47:14.408Z,66.98
2022-08-27T09:50:20.175Z,67.05
2022-08-27T09:53:40.349Z,67.07
2022-08-27T09:56:50.828Z,66.68
2022-08-27T09:59:54.882Z,67.07
2022-08-27T10:03:02.928Z,67.24
2022-08-27T10:06:05.757Z,66.79
2022-08-27T10:09:41.130Z,67.02
2022-08-27T10:13:01.687Z,66.98
2022-08-27T10:16:20.042Z,66.56
2022-08-27T10:19:31.444Z,66.42
2022-08-27T10:22:47.434Z,66.33
2022-08-27T10:25:49.790Z,66.56
2022-08-27T10:29:14.669Z,66.24
2022-08-27T10:32:32.019Z,65.98
2022-08-27T10:35:48.276Z,65.82
2022-08-27T10:39:14.226Z,66.31
2022-08-27T10:42:37.218Z,65.82
2022-08-27T10:46:16.351Z,65.94
2022-08-27T10:49:24.080Z,66.10
2022-08-27T10:52:31.095Z,65.66
2022-08-27T10:55:41.888Z,65.58
2022-08-27T10:58:56.994Z,66.32
2022-08-27T11:02:25.817Z,66.01
2022-08-27T11:05:36.928Z,65.54
2022-08-27T11:08:44.507Z,65.62
2022-08-27T11:12:13.345Z,65.37
2022-08-27T11:15:43.847Z,65.60
2022-08-27T11:18:56.226Z,65.53
2022-08-27T11:22:26.552Z,65.54
2022-08-27T11:26:01.998Z,65.32
2022-08-27T11:29:18.206Z,65.42
2022-08-27T11:32:37.932Z,65.24
2022-08-27T11:35:49.542Z,65.14
2022-08-27T11:39:13.961Z,64.88
2022-08-27T11:42:22.375Z,64.89
2022-08-27T11:45:38.696Z,64.61
2022-08-27T11:48:44.149Z,64.52
2022-08-27T11:51:55.487Z,64.09
2022-08-27T11:55:15.854Z,64.68
2022-08-27T11:58:18.027Z,65.07
2022-08-27T12:01:31.599Z,64.52
2022-08-27T12:04:43.161Z,64.74
2022-08-27T12:07:52.008Z,64.88
2022-08-27T12:11:24.093Z,64.85
2022-08-27T12:15:31.008Z,64.92
2022-08-27T12:18:41.918Z,64.27
2022-08-27T12:21:44.061Z,64.01
2022-08-27T12:24:55.585Z,64.52
2022-08-27T12:28:04.101Z,63.76
2022-08-27T12:31:06.817Z,63.83
2022-08-27T12:34:15.383Z,63.50
2022-08-27T12:37:27.497Z,63.75
2022-08-27T12:41:00.281Z,63.75
2022-08-27T12:44:04.077Z,63.87
2022-08-27T12:47:11.766Z,63.28
2022-08-27T12:50:19.435Z,63.53
2022-08-27T12:53:37.187Z,63.59
2022-08-27T12:56:50.270Z,63.19
2022-08-27T13:00:09.958Z,62.45
2022-08-27T13:03:42.754Z,62.41
2022-08-27T13:06:45.927Z,62.27
2022-08-27T13:09:48.060Z,62.17
2022-08-27T13:13:03.787Z,61.87
2022-08-27T13:16:06.402Z,61.86
2022-08-27T13:19:24.153Z,61.31
2022-08-27T13:22:31.579Z,61.14
2022-08-27T13:25:36.322Z,60.79
2022-08-27T13:28:41.461Z,60.67
2022-08-27T13:31:44.140Z,60.85
2022-08-27T13:34:46.610Z,60.79
2022-08-27T13:37:53.268Z,60.57
2022-08-27T13:41:20.228Z,60.15
2022-08-27T13:44:35.328Z,59.75
2022-08-27T13:47:46.693Z,59.57
2022-08-27T13:50:52.917Z,59.25
2022-08-27T13:54:13.376Z,59.50
2022-08-27T13:57:26.643Z,59.11
2022-08-27T14:00:32.133Z,59.39
2022-08-27T14:03:36.784Z,59.54
2022-08-27T14:06:45.178Z,59.64
2022-08-27T14:09:55.081Z,59.44
2022-08-27T14:13:10.177Z,58.75
2022-08-27T14:16:31.569Z,58.42
2022-08-27T14:19:36.330Z,58.23
2022-08-27T14:22:39.344Z,57.80
2022-08-27T14:25:41.866Z,57.56
2022-08-27T14:28:44.879Z,57.37
2022-08-27T14:31:47.777Z,56.74
2022-08-27T14:34:50.227Z,57.04
2022-08-27T14:37:52.760Z,57.35
2022-08-27T14:40:55.380Z,57.00
2022-08-27T14:43:57.663Z,57.00
2022-08-27T14:47:00.175Z,56.90
2022-08-27T14:50:03.842Z,57.03
2022-08-27T14:53:06.047Z,57.22
2022-08-27T14:56:08.188Z,57.26
2022-08-27T14:59:10.558Z,57.36
2022-08-27T15:02:18.922Z,57.51
2022-08-27T15:05:23.438Z,57.51
2022-08-27T15:08:29.357Z,57.48
2022-08-27T15:11:36.310Z,57.49
2022-08-27T15:14:38.799Z,57.54
2022-08-27T15:17:41.119Z,57.71
2022-08-27T15:20:43.556Z,57.99
2022-08-27T15:23:49.524Z,57.99
2022-08-27T15:26:53.918Z,57.91
2022-08-27T15:29:56.086Z,58.06
2022-08-27T15:32:58.521Z,58.19
2022-08-27T15:36:03.982Z,58.69
2022-08-27T15:39:07.023Z,58.61
2022-08-27T15:42:09.655Z,58.02
2022-08-27T15:45:13.380Z,58.20
2022-08-27T15:48:15.530Z,58.04
2022-08-27T15:51:21.626Z,57.90
2022-08-27T15:54:23.712Z,57.84
2022-08-27T15:57:25.810Z,58.05
2022-08-27T16:00:29.269Z,58.27
2022-08-27T16:03:35.734Z,58.20
2022-08-27T16:06:38.707Z,58.82
2022-08-27T16:09:41.397Z,58.67
2022-08-27T16:12:43.639Z,59.20
2022-08-27T16:15:45.823Z,59.03
2022-08-27T16:18:48.076Z,58.97
2022-08-27T16:21:52.224Z,58.75
2022-08-27T16:24:54.717Z,58.99
2022-08-27T16:28:00.874Z,59.01
2022-08-27T16:31:03.382Z,58.98
2022-08-27T16:34:18.764Z,59.12
2022-08-27T16:37:21.081Z,59.70
2022-08-27T16:40:23.228Z,59.35
2022-08-27T16:43:27.371Z,59.26
2022-08-27T16:46:29.643Z,58.68
2022-08-27T16:49:50.398Z,58.77
2022-08-27T16:52:52.647Z,58.38
2022-08-27T16:55:55.007Z,59.16
2022-08-27T16:58:57.083Z,58.64
2022-08-27T17:02:05.901Z,58.98
2022-08-27T17:05:30.718Z,59.83
2022-08-27T17:08:30.949Z,59.71
2022-08-27T17:11:41.850Z,60.25
2022-08-27T17:14:45.532Z,59.83
2022-08-27T17:17:47.613Z,58.29
2022-08-27T17:20:50.868Z,57.48
2022-08-27T17:23:54.491Z,58.58
2022-08-27T17:26:56.607Z,57.72
2022-08-27T17:29:58.768Z,57.50
2022-08-27T17:33:00.930Z,58.41
2022-08-27T17:36:03.311Z,58.91
2022-08-27T17:39:08.143Z,59.73
2022-08-27T17:42:10.434Z,59.42
2022-08-27T17:45:12.676Z,59.97
2022-08-27T17:48:19.102Z,60.12
2022-08-27T17:51:22.158Z,60.43
2022-08-27T17:54:26.786Z,60.70
2022-08-27T17:57:40.586Z,61.30
2022-08-27T18:00:45.059Z,61.96
2022-08-27T18:03:48.090Z,61.96
2022-08-27T18:06:50.547Z,62.01
2022-08-27T18:09:53.163Z,62.07
2022-08-27T18:12:55.997Z,61.93
2022-08-27T18:15:58.209Z,61.26
2022-08-27T18:19:00.969Z,61.33
2022-08-27T18:22:08.891Z,61.23
2022-08-27T18:25:12.572Z,61.12
2022-08-27T18:28:18.182Z,61.45
2022-08-27T18:31:23.128Z,61.10
2022-08-27T18:34:25.332Z,60.99
2022-08-27T18:37:27.525Z,61.28
2022-08-27T18:40:34.584Z,61.73
2022-08-27T18:43:38.372Z,61.45
2022-08-27T18:46:40.628Z,61.84
2022-08-27T18:49:42.746Z,61.82
2022-08-27T18:52:47.108Z,61.67
2022-08-27T18:55:50.472Z,61.77
2022-08-27T18:58:52.578Z,61.77
2022-08-27T19:01:56.155Z,62.48
2022-08-27T19:04:58.775Z,62.14
2022-08-27T19:08:00.920Z,61.86
2022-08-27T19:11:03.438Z,62.02
2022-08-27T19:14:05.588Z,62.24
2022-08-27T19:17:08.603Z,62.73
2022-08-27T19:20:11.571Z,62.63
2022-08-27T19:23:13.733Z,62.74
2022-08-27T19:26:19.499Z,63.07
2022-08-27T19:29:21.666Z,63.04
2022-08-27T19:32:24.172Z,62.92
2022-08-27T19:35:26.405Z,63.08
2022-08-27T19:38:31.631Z,63.30
2022-08-27T19:41:33.917Z,63.23
2022-08-27T19:44:36.347Z,64.09
2022-08-27T19:47:38.854Z,63.94
2022-08-27T19:50:41.309Z,63.69
2022-08-27T19:53:43.471Z,63.58
2022-08-27T19:56:45.664Z,64.05
2022-08-27T19:59:47.963Z,63.58
2022-08-27T20:02:50.819Z,63.56
2022-08-27T20:05:53.723Z,63.06
2022-08-27T20:08:55.938Z,63.08
2022-08-27T20:11:58.345Z,62.50
2022-08-27T20:15:00.632Z,62.73
2022-08-27T20:18:05.157Z,63.01
2022-08-27T20:21:07.539Z,63.27
2022-08-27T20:24:09.784Z,62.85
2022-08-27T20:27:12.020Z,62.88
2022-08-27T20:30:15.916Z,62.73
2022-08-27T20:33:18.242Z,62.66
2022-08-27T20:36:23.897Z,62.69
2022-08-27T20:39:26.163Z,62.74
2022-08-27T20:42:28.514Z,63.02
2022-08-27T20:45:30.764Z,63.05
2022-08-27T20:48:34.570Z,63.40
2022-08-27T20:51:51.107Z,63.46
2022-08-27T20:54:59.278Z,63.40
2022-08-27T20:58:20.337Z,63.60
2022-08-27T21:01:22.778Z,63.91
2022-08-27T21:04:25.098Z,64.13
2022-08-27T21:07:27.750Z,63.79
2022-08-27T21:10:30.231Z,63.99
2022-08-27T21:13:32.494Z,64.56
2022-08-27T21:16:34.741Z,64.40
2022-08-27T21:19:38.124Z,64.24
2022-08-27T21:22:42.077Z,64.14
2022-08-27T21:25:44.681Z,64.04
2022-08-27T21:28:46.957Z,64.43
2022-08-27T21:31:49.711Z,64.42
2022-08-27T21:34:52.018Z,64.39
2022-08-27T21:37:55.767Z,64.76
2022-08-27T21:40:58.443Z,64.79
2022-08-27T21:44:00.694Z,64.85
2022-08-27T21:47:03.937Z,64.63
2022-08-27T21:50:07.219Z,65.08
2022-08-27T21:53:10.482Z,65.07
2022-08-27T21:56:12.986Z,65.08
2022-08-27T21:59:15.262Z,65.26
2022-08-27T22:05:44.368Z,65.64
2022-08-27T22:08:46.603Z,65.66
2022-08-27T22:11:48.797Z,65.10
2022-08-27T22:14:50.997Z,65.37
2022-08-27T22:17:56.129Z,65.36
2022-08-27T22:20:58.850Z,65.35
2022-08-27T22:24:01.121Z,65.30
2022-08-27T22:27:03.337Z,65.56
2022-08-27T22:30:10.883Z,65.70
2022-08-27T22:33:14.425Z,65.53
2022-08-27T22:36:16.752Z,65.91
2022-08-27T22:39:19.088Z,65.99
2022-08-27T22:42:21.297Z,65.69
2022-08-27T22:45:24.633Z,66.01
2022-08-27T22:48:26.839Z,65.77
2022-08-27T22:51:29.008Z,65.76
2022-08-27T22:54:31.199Z,65.62
2022-08-27T22:57:33.338Z,65.51
2022-08-27T23:00:37.506Z,65.33
2022-08-27T23:03:39.613Z,65.63
2022-08-27T23:06:41.911Z,65.45
2022-08-27T23:09:44.013Z,65.71
2022-08-27T23:12:47.143Z,65.65
2022-08-27T23:15:49.322Z,65.66
2022-08-27T23:18:51.447Z,65.78
2022-08-27T23:21:53.610Z,65.65
2022-08-27T23:25:14.553Z,65.38
2022-08-27T23:28:17.244Z,65.85
2022-08-27T23:31:20.317Z,65.64
2022-08-27T23:34:22.364Z,65.90
2022-08-27T23:37:24.812Z,65.89
2022-08-27T23:40:26.967Z,65.76
2022-08-27T23:43:30.146Z,66.17
2022-08-27T23:46:32.266Z,65.90
2022-08-27T23:49:34.399Z,65.67
2022-08-27T23:52:37.828Z,65.59
2022-08-27T23:55:40.956Z,65.43
2022-08-27T23:58:43.188Z,65.56
